Time;durP1;ratioP1;P1;durP2;ratioP2;P2;SDS_P1;SDS_P2;PMS_P1;PMS_P2;Temp;Humidity;BMP_temperature;BMP_pressure;BME280_temperature;BME280_humidity;BME280_pressure;Samples;Min_cycle;Max_cycle;Signal;HPM_P1;HPM_P2
2023/12/08 00:00:53;;;;;;;24.38;10.85;;;1.10;99.90;;;;;;5095680;28;20135;-52
2023/12/08 00:03:18;;;;;;;26.10;11.73;;;1.10;99.90;;;;;;5095024;28;20122;-50
2023/12/08 00:05:44;;;;;;;23.27;10.77;;;1.10;99.90;;;;;;5095224;28;20067;-51
2023/12/08 00:08:10;;;;;;;23.52;10.73;;;1.10;99.90;;;;;;5095484;28;20476;-52
2023/12/08 00:10:35;;;;;;;23.25;10.77;;;1.10;99.90;;;;;;5095193;28;20433;-50
2023/12/08 00:13:01;;;;;;;22.20;11.18;;;1.10;99.90;;;;;;5095298;28;20052;-50
2023/12/08 00:15:27;;;;;;;22.17;10.60;;;1.20;99.90;;;;;;5077384;28;20044;-48
2023/12/08 00:17:53;;;;;;;23.17;11.52;;;1.10;99.90;;;;;;5095403;28;20497;-48
2023/12/08 00:20:18;;;;;;;22.60;10.93;;;1.10;99.90;;;;;;5095232;28;20059;-50
2023/12/08 00:22:44;;;;;;;22.80;10.55;;;1.20;99.90;;;;;;5094880;28;20085;-49
2023/12/08 00:25:11;;;;;;;24.85;11.63;;;1.10;99.90;;;;;;5094513;28;20044;-48
2023/12/08 00:27:36;;;;;;;23.15;10.93;;;1.20;99.90;;;;;;5093778;28;20090;-50
2023/12/08 00:30:02;;;;;;;22.75;11.50;;;1.10;99.90;;;;;;5095418;28;20495;-48
2023/12/08 00:32:28;;;;;;;25.25;11.73;;;1.10;99.90;;;;;;5094929;28;20083;-49
2023/12/08 00:34:54;;;;;;;21.08;10.43;;;1.10;99.90;;;;;;5095214;28;20082;-49
2023/12/08 00:37:20;;;;;;;21.13;10.55;;;1.20;99.90;;;;;;5094823;28;20516;-49
2023/12/08 00:39:46;;;;;;;20.27;10.63;;;1.10;99.90;;;;;;5094716;28;20118;-49
2023/12/08 00:42:12;;;;;;;23.77;11.07;;;1.20;99.90;;;;;;5094472;28;20127;-49
2023/12/08 00:44:38;;;;;;;20.17;11.00;;;1.10;99.90;;;;;;5094724;28;20079;-49
2023/12/08 00:47:04;;;;;;;24.63;11.15;;;1.10;99.90;;;;;;5094593;28;20110;-48
2023/12/08 00:49:30;;;;;;;22.08;10.70;;;1.20;99.90;;;;;;5094655;28;20048;-48
2023/12/08 00:51:56;;;;;;;21.70;10.10;;;1.10;99.90;;;;;;5094583;28;20048;-49
2023/12/08 00:54:22;;;;;;;20.63;10.43;;;1.10;99.90;;;;;;5094525;28;20406;-49
2023/12/08 00:56:47;;;;;;;21.03;9.73;;;1.10;99.90;;;;;;5094442;28;20044;-49
2023/12/08 00:59:13;;;;;;;23.02;10.80;;;1.10;99.90;;;;;;5094531;28;20044;-50
2023/12/08 01:01:39;;;;;;;19.88;10.43;;;1.20;99.90;;;;;;5093303;28;20040;-48
2023/12/08 01:04:04;;;;;;;20.90;10.90;;;1.10;99.90;;;;;;5094359;28;20087;-48
2023/12/08 01:06:30;;;;;;;20.48;10.30;;;1.10;99.90;;;;;;5094223;28;20059;-48
2023/12/08 01:08:56;;;;;;;21.42;10.70;;;1.10;99.90;;;;;;5094384;28;20055;-49
2023/12/08 01:11:21;;;;;;;21.48;9.98;;;1.10;99.90;;;;;;5094181;28;20055;-48
2023/12/08 01:13:47;;;;;;;20.73;10.00;;;1.10;99.90;;;;;;5094254;28;20130;-49
2023/12/08 01:16:13;;;;;;;19.02;9.30;;;1.10;99.90;;;;;;5094132;28;20141;-48
2023/12/08 01:18:38;;;;;;;20.75;10.52;;;1.10;99.90;;;;;;5094318;28;20043;-49
2023/12/08 01:21:04;;;;;;;20.83;10.38;;;1.10;99.90;;;;;;5094135;28;20063;-50
2023/12/08 01:23:30;;;;;;;22.83;11.57;;;1.10;99.90;;;;;;5094062;28;20040;-49
2023/12/08 01:25:56;;;;;;;20.10;10.17;;;1.10;99.90;;;;;;5093900;28;20452;-48
2023/12/08 01:28:22;;;;;;;19.55;10.18;;;1.10;99.90;;;;;;5094229;28;20289;-49
2023/12/08 01:30:48;;;;;;;23.33;10.77;;;1.10;99.90;;;;;;5094044;28;20051;-49
2023/12/08 01:33:13;;;;;;;21.20;10.50;;;1.10;99.90;;;;;;5094216;28;20040;-49
2023/12/08 01:35:39;;;;;;;20.08;10.38;;;1.10;99.90;;;;;;5092633;28;20425;-48
2023/12/08 01:38:05;;;;;;;19.65;9.65;;;1.10;99.90;;;;;;5093154;28;20048;-49
2023/12/08 01:40:30;;;;;;;22.98;10.55;;;1.10;99.90;;;;;;5093687;28;20047;-49
2023/12/08 01:42:56;;;;;;;22.40;10.75;;;1.10;99.90;;;;;;5093823;28;20044;-49
2023/12/08 01:45:22;;;;;;;25.02;11.88;;;1.10;99.90;;;;;;5094196;28;20040;-48
2023/12/08 01:47:49;;;;;;;20.05;10.68;;;1.10;99.90;;;;;;5092698;28;20075;-50
2023/12/08 01:50:17;;;;;;;23.88;10.52;;;1.10;99.90;;;;;;5093773;28;20059;-49
2023/12/08 01:52:44;;;;;;;24.52;11.38;;;1.20;99.90;;;;;;5093490;28;20494;-49
2023/12/08 01:55:10;;;;;;;23.02;10.98;;;1.10;99.90;;;;;;5093477;28;20054;-48
2023/12/08 01:57:36;;;;;;;21.73;10.53;;;1.10;99.90;;;;;;5093760;28;20032;-48
2023/12/08 02:00:02;;;;;;;20.67;10.02;;;1.10;99.90;;;;;;5093773;28;20675;-48
2023/12/08 02:02:28;;;;;;;22.83;11.68;;;1.10;99.90;;;;;;5093811;28;20046;-49
2023/12/08 02:04:57;;;;;;;20.52;9.82;;;1.20;99.90;;;;;;5093815;28;20587;-52
2023/12/08 02:07:24;;;;;;;20.65;10.50;;;1.20;99.90;;;;;;5093336;28;20047;-48
2023/12/08 02:09:49;;;;;;;21.55;9.93;;;1.20;99.90;;;;;;5093401;28;20506;-52
2023/12/08 02:12:15;;;;;;;21.77;10.30;;;1.20;99.90;;;;;;5093899;28;20044;-52
2023/12/08 02:14:41;;;;;;;21.23;11.85;;;1.20;99.90;;;;;;5075532;28;20414;-52
2023/12/08 02:17:16;;;;;;;24.15;11.45;;;1.10;99.90;;;;;;5093471;28;20123;-52
2023/12/08 02:19:42;;;;;;;23.38;10.80;;;1.10;99.90;;;;;;5093564;28;20122;-51
2023/12/08 02:22:08;;;;;;;22.92;10.95;;;1.20;99.90;;;;;;5093273;28;20493;-52
2023/12/08 02:24:33;;;;;;;24.40;11.70;;;1.20;99.90;;;;;;5093597;28;20157;-51
2023/12/08 02:26:59;;;;;;;21.25;10.75;;;1.20;99.90;;;;;;5093100;28;20055;-50
2023/12/08 02:29:25;;;;;;;22.52;11.55;;;1.20;99.90;;;;;;5093838;28;20040;-49
2023/12/08 02:32:05;;;;;;;21.52;10.70;;;1.20;99.90;;;;;;5093360;28;20044;-50
2023/12/08 02:34:33;;;;;;;24.27;12.90;;;1.20;99.90;;;;;;5093804;28;20079;-51
2023/12/08 02:37:02;;;;;;;22.80;10.85;;;1.20;99.90;;;;;;5093169;28;20040;-50
2023/12/08 02:39:29;;;;;;;19.92;10.02;;;1.20;99.90;;;;;;5093572;28;20054;-48
2023/12/08 02:41:55;;;;;;;19.00;9.68;;;1.20;99.90;;;;;;5093244;28;20048;-48
2023/12/08 02:44:20;;;;;;;18.77;9.90;;;1.20;99.90;;;;;;5093485;28;20097;-48
2023/12/08 02:46:46;;;;;;;22.08;10.93;;;1.20;99.90;;;;;;5093228;28;20040;-48
2023/12/08 02:49:12;;;;;;;22.25;11.13;;;1.20;99.90;;;;;;5095900;28;20048;-48
2023/12/08 02:51:37;;;;;;;22.50;11.02;;;1.20;99.90;;;;;;5096701;28;20093;-49
2023/12/08 02:54:03;;;;;;;19.90;10.52;;;1.20;99.90;;;;;;5096898;28;20047;-48
2023/12/08 02:56:29;;;;;;;20.63;9.45;;;1.20;99.90;;;;;;5096846;28;20139;-48
2023/12/08 02:58:54;;;;;;;21.45;11.02;;;1.20;99.90;;;;;;5096925;28;20391;-49
2023/12/08 03:01:20;;;;;;;20.98;10.57;;;1.20;99.90;;;;;;5096566;28;20510;-48
2023/12/08 03:03:46;;;;;;;17.48;9.57;;;1.20;99.90;;;;;;5096491;28;20044;-49
2023/12/08 03:06:12;;;;;;;21.52;10.13;;;1.20;99.90;;;;;;5095379;28;20554;-49
2023/12/08 03:08:38;;;;;;;19.80;10.07;;;1.10;99.90;;;;;;5096788;28;20070;-48
2023/12/08 03:11:04;;;;;;;20.90;9.85;;;1.20;99.90;;;;;;5096779;28;20047;-49
2023/12/08 03:13:30;;;;;;;20.30;10.18;;;1.20;99.90;;;;;;5096672;28;20043;-52
2023/12/08 03:15:55;;;;;;;20.88;10.80;;;1.20;99.90;;;;;;5096222;28;20044;-48
2023/12/08 03:18:21;;;;;;;19.98;9.57;;;1.20;99.90;;;;;;5096150;28;20055;-51
2023/12/08 03:20:47;;;;;;;19.67;10.32;;;1.20;99.90;;;;;;5096233;28;20094;-51
2023/12/08 03:23:13;;;;;;;17.98;9.38;;;1.20;99.90;;;;;;5095882;28;20039;-52
2023/12/08 03:25:38;;;;;;;17.57;9.87;;;1.20;99.90;;;;;;5096415;28;20089;-51
2023/12/08 03:28:04;;;;;;;18.75;9.40;;;1.20;99.90;;;;;;5096196;28;20048;-51
2023/12/08 03:30:30;;;;;;;18.83;9.88;;;1.20;99.90;;;;;;5096142;28;20094;-49
2023/12/08 03:32:55;;;;;;;19.30;9.60;;;1.20;99.90;;;;;;5096150;28;20040;-52
2023/12/08 03:35:21;;;;;;;16.73;8.95;;;1.20;99.90;;;;;;5095903;28;20044;-51
2023/12/08 03:37:46;;;;;;;18.90;9.30;;;1.20;99.90;;;;;;5096104;28;20041;-49
2023/12/08 03:40:12;;;;;;;16.23;8.75;;;1.20;99.90;;;;;;5095046;28;20044;-50
2023/12/08 03:42:38;;;;;;;18.33;8.88;;;1.30;99.90;;;;;;5095869;28;20048;-48
2023/12/08 03:45:05;;;;;;;16.80;9.30;;;1.20;99.90;;;;;;5096083;28;20047;-48
2023/12/08 03:47:30;;;;;;;20.00;9.27;;;1.30;99.90;;;;;;5095843;28;20040;-48
2023/12/08 03:49:56;;;;;;;19.70;9.83;;;1.30;99.90;;;;;;5095603;28;20371;-48
2023/12/08 03:52:22;;;;;;;16.10;8.70;;;1.30;99.90;;;;;;5095783;28;20165;-48
2023/12/08 03:54:47;;;;;;;18.88;8.90;;;1.30;99.90;;;;;;5095680;28;20048;-48
2023/12/08 03:57:13;;;;;;;18.80;9.20;;;1.30;99.90;;;;;;5095921;28;20391;-48
2023/12/08 03:59:41;;;;;;;17.30;8.85;;;1.30;99.90;;;;;;5094632;28;20399;-48
2023/12/08 04:02:07;;;;;;;16.67;8.70;;;1.30;99.90;;;;;;5095371;28;20048;-48
2023/12/08 04:04:32;;;;;;;18.67;9.20;;;1.30;99.90;;;;;;5094095;28;20067;-49
2023/12/08 04:06:58;;;;;;;17.98;8.50;;;1.30;99.90;;;;;;5095494;28;20135;-48
2023/12/08 04:09:24;;;;;;;16.75;7.93;;;1.30;99.90;;;;;;5095378;28;20105;-49
2023/12/08 04:11:50;;;;;;;17.80;9.65;;;1.30;99.90;;;;;;5095233;28;20169;-49
2023/12/08 04:14:15;;;;;;;18.10;9.83;;;1.30;99.90;;;;;;5095386;28;20043;-48
2023/12/08 04:16:41;;;;;;;18.33;8.13;;;1.30;99.90;;;;;;5095238;28;20429;-48
2023/12/08 04:19:07;;;;;;;15.88;8.25;;;1.30;99.90;;;;;;5094990;28;20413;-48
2023/12/08 04:21:32;;;;;;;17.75;9.07;;;1.30;99.90;;;;;;5095222;28;20395;-48
2023/12/08 04:23:58;;;;;;;15.77;8.05;;;1.30;99.90;;;;;;5095195;28;20387;-48
2023/12/08 04:26:27;;;;;;;17.73;9.32;;;1.30;99.90;;;;;;5095016;28;20498;-47
2023/12/08 04:28:53;;;;;;;17.25;8.98;;;1.30;99.90;;;;;;5095041;28;20047;-48
2023/12/08 04:31:19;;;;;;;18.05;9.02;;;1.30;99.90;;;;;;5094987;28;20123;-48
2023/12/08 04:33:44;;;;;;;16.92;9.00;;;1.30;99.90;;;;;;5094956;28;20059;-48
2023/12/08 04:36:10;;;;;;;15.40;8.02;;;1.30;99.90;;;;;;5094964;28;20048;-48
2023/12/08 04:38:36;;;;;;;19.98;9.25;;;1.30;99.90;;;;;;5095246;28;20506;-49
2023/12/08 04:41:02;;;;;;;17.30;8.65;;;1.30;99.90;;;;;;5094853;28;20044;-50
2023/12/08 04:43:27;;;;;;;19.00;8.57;;;1.30;99.90;;;;;;5094772;28;20465;-52
2023/12/08 04:45:53;;;;;;;17.95;9.38;;;1.20;99.90;;;;;;5094410;28;20047;-51
2023/12/08 04:48:18;;;;;;;16.35;8.45;;;1.20;99.90;;;;;;5093381;28;20127;-52
2023/12/08 04:50:45;;;;;;;17.70;8.70;;;1.20;99.90;;;;;;5094931;28;20414;-50
2023/12/08 04:53:11;;;;;;;21.60;9.40;;;1.10;99.90;;;;;;5094950;28;20488;-51
2023/12/08 04:55:37;;;;;;;18.77;8.83;;;1.10;99.90;;;;;;5093634;28;20090;-49
2023/12/08 04:58:03;;;;;;;17.80;8.80;;;1.10;99.90;;;;;;5094616;28;20471;-52
2023/12/08 05:00:29;;;;;;;18.02;9.43;;;1.10;99.90;;;;;;5094365;28;20100;-52
2023/12/08 05:02:57;;;;;;;18.63;9.23;;;1.10;99.90;;;;;;5093318;28;20118;-50
2023/12/08 05:05:24;;;;;;;20.40;9.38;;;1.00;99.90;;;;;;5093074;28;20502;-52
2023/12/08 05:07:50;;;;;;;19.23;9.32;;;1.00;99.90;;;;;;5094449;28;20398;-51
2023/12/08 05:10:16;;;;;;;19.42;10.07;;;1.00;99.90;;;;;;5094146;28;20044;-51
2023/12/08 05:12:42;;;;;;;15.75;8.77;;;1.00;99.90;;;;;;5094292;28;20078;-52
2023/12/08 05:15:08;;;;;;;16.95;8.85;;;0.90;99.90;;;;;;5092867;28;20044;-48
2023/12/08 05:17:34;;;;;;;18.30;8.90;;;0.90;99.90;;;;;;5093908;28;20449;-49
2023/12/08 05:20:03;;;;;;;20.42;10.18;;;1.00;99.90;;;;;;5093265;28;20048;-49
2023/12/08 05:22:29;;;;;;;19.60;9.18;;;0.90;99.90;;;;;;5092881;28;20044;-50
2023/12/08 05:24:54;;;;;;;19.80;9.50;;;0.90;99.90;;;;;;5093993;28;20055;-49
2023/12/08 05:27:20;;;;;;;18.08;8.90;;;0.90;99.90;;;;;;5093873;28;20422;-49
2023/12/08 05:29:46;;;;;;;20.45;8.95;;;0.90;99.90;;;;;;5093887;28;20046;-49
2023/12/08 05:32:12;;;;;;;17.95;8.70;;;0.90;99.90;;;;;;5093788;28;20803;-49
2023/12/08 05:34:38;;;;;;;19.73;9.50;;;0.90;99.90;;;;;;5093987;28;20044;-49
2023/12/08 05:37:03;;;;;;;20.10;9.30;;;0.80;99.90;;;;;;5094039;28;20040;-49
2023/12/08 05:39:29;;;;;;;21.15;9.65;;;0.90;99.90;;;;;;5076054;28;20087;-49
2023/12/08 05:41:55;;;;;;;19.33;9.77;;;0.80;99.90;;;;;;5092504;28;20039;-49
2023/12/08 05:44:20;;;;;;;18.35;8.98;;;0.90;99.90;;;;;;5093691;28;20048;-49
2023/12/08 05:46:46;;;;;;;20.40;9.52;;;0.80;99.90;;;;;;5093592;28;20051;-50
2023/12/08 05:49:12;;;;;;;22.65;10.45;;;0.90;99.90;;;;;;5094111;28;20090;-48
2023/12/08 05:51:37;;;;;;;20.42;9.57;;;0.80;99.90;;;;;;5092635;28;20051;-48
2023/12/08 05:54:03;;;;;;;17.90;9.30;;;0.80;99.90;;;;;;5093822;28;20051;-50
2023/12/08 05:56:29;;;;;;;20.73;10.25;;;0.80;99.90;;;;;;5093765;28;20047;-49
2023/12/08 05:58:54;;;;;;;18.70;9.48;;;0.80;99.90;;;;;;5092708;28;20059;-50
2023/12/08 06:01:21;;;;;;;21.30;9.27;;;0.80;99.90;;;;;;5093439;28;20044;-50
2023/12/08 06:03:47;;;;;;;23.08;9.25;;;0.80;99.90;;;;;;5093746;28;20052;-51
2023/12/08 06:06:13;;;;;;;20.02;9.68;;;0.80;99.90;;;;;;5093597;28;20048;-49
2023/12/08 06:08:39;;;;;;;19.10;10.00;;;0.80;99.90;;;;;;5093680;28;20182;-49
2023/12/08 06:11:05;;;;;;;19.13;9.43;;;0.80;99.90;;;;;;5093658;28;20051;-50
2023/12/08 06:13:31;;;;;;;19.60;10.23;;;0.80;99.90;;;;;;5093608;28;20054;-51
2023/12/08 06:15:57;;;;;;;20.25;10.45;;;0.80;99.90;;;;;;5093475;28;20131;-51
2023/12/08 06:18:23;;;;;;;18.25;9.05;;;0.80;99.90;;;;;;5093490;28;20048;-48
2023/12/08 06:20:49;;;;;;;20.37;8.77;;;0.80;99.90;;;;;;5093580;28;20048;-49
2023/12/08 06:23:14;;;;;;;18.98;9.93;;;0.80;99.90;;;;;;5095033;28;20564;-49
2023/12/08 06:25:40;;;;;;;19.23;9.32;;;0.80;99.90;;;;;;5097336;28;20429;-50
2023/12/08 06:28:06;;;;;;;18.50;8.75;;;0.80;99.90;;;;;;5097006;28;20155;-49
2023/12/08 06:30:31;;;;;;;18.92;9.88;;;0.80;99.90;;;;;;5097120;28;20102;-49
2023/12/08 06:32:57;;;;;;;22.00;9.43;;;0.80;99.90;;;;;;5096979;28;20105;-50
2023/12/08 06:35:22;;;;;;;19.50;9.63;;;0.80;99.90;;;;;;5096247;28;20135;-50
2023/12/08 06:37:50;;;;;;;22.08;10.98;;;0.70;99.90;;;;;;5097231;28;20043;-49
2023/12/08 06:40:16;;;;;;;19.38;10.10;;;0.80;99.90;;;;;;5097042;28;20127;-49
2023/12/08 06:42:41;;;;;;;20.38;9.40;;;0.80;99.90;;;;;;5096738;28;20080;-49
2023/12/08 06:45:07;;;;;;;20.65;10.38;;;0.80;99.90;;;;;;5096941;28;20048;-49
2023/12/08 06:47:33;;;;;;;19.37;9.97;;;0.70;99.90;;;;;;5095941;28;20048;-49
2023/12/08 06:49:59;;;;;;;18.88;9.05;;;0.80;99.90;;;;;;5096906;28;20059;-49
2023/12/08 06:52:24;;;;;;;18.27;9.45;;;0.70;99.90;;;;;;5096934;28;20153;-50
2023/12/08 06:54:50;;;;;;;20.63;9.68;;;0.80;99.90;;;;;;5095522;28;20054;-49
2023/12/08 06:57:16;;;;;;;18.92;9.48;;;0.80;99.90;;;;;;5095513;28;20044;-50
2023/12/08 06:59:41;;;;;;;17.27;8.30;;;0.80;99.90;;;;;;5096777;28;20047;-50
2023/12/08 07:02:07;;;;;;;20.02;9.52;;;0.80;99.90;;;;;;5096755;28;20077;-48
2023/12/08 07:04:33;;;;;;;18.50;9.43;;;0.80;99.90;;;;;;5096526;28;20083;-49
2023/12/08 07:06:58;;;;;;;20.77;10.20;;;0.80;99.90;;;;;;5096705;28;20398;-51
2023/12/08 07:09:24;;;;;;;21.30;9.95;;;0.80;99.90;;;;;;5096718;28;20048;-49
2023/12/08 07:11:50;;;;;;;21.48;10.05;;;0.80;99.90;;;;;;5095620;28;20052;-49
2023/12/08 07:14:15;;;;;;;20.42;10.57;;;0.90;99.90;;;;;;5096476;28;20044;-49
2023/12/08 07:16:44;;;;;;;22.10;10.50;;;0.80;99.90;;;;;;5096536;28;20525;-51
2023/12/08 07:19:10;;;;;;;21.75;10.77;;;0.80;99.90;;;;;;5096731;28;20050;-50
2023/12/08 07:21:43;;;;;;;20.20;10.68;;;0.80;99.90;;;;;;5096435;28;20416;-50
2023/12/08 07:24:12;;;;;;;20.92;10.40;;;0.80;99.90;;;;;;5096262;28;20131;-51
2023/12/08 07:26:38;;;;;;;21.42;10.70;;;0.80;99.90;;;;;;5094805;28;20075;-51
2023/12/08 07:29:04;;;;;;;21.98;10.25;;;0.80;99.90;;;;;;5096445;28;20051;-50
2023/12/08 07:31:30;;;;;;;20.20;9.98;;;0.80;99.90;;;;;;5096920;28;20050;-53
2023/12/08 07:33:56;;;;;;;19.92;10.35;;;0.80;99.90;;;;;;5096392;28;20044;-49
2023/12/08 07:36:22;;;;;;;21.92;10.30;;;0.80;99.90;;;;;;5094983;28;20062;-52
2023/12/08 07:38:47;;;;;;;23.13;10.55;;;0.80;99.90;;;;;;5095937;28;20376;-52
2023/12/08 07:41:13;;;;;;;21.30;9.98;;;0.80;99.90;;;;;;5095904;28;20131;-51
2023/12/08 07:43:39;;;;;;;23.75;10.93;;;0.70;99.90;;;;;;5094749;28;20052;-50
2023/12/08 07:46:05;;;;;;;23.27;11.10;;;0.80;99.90;;;;;;5096117;28;20105;-50
2023/12/08 07:48:30;;;;;;;22.13;10.93;;;0.80;99.90;;;;;;5095883;28;20048;-54
2023/12/08 07:50:56;;;;;;;19.88;9.77;;;0.70;99.90;;;;;;5095809;28;20052;-56
2023/12/08 07:53:22;;;;;;;24.10;10.85;;;0.70;99.90;;;;;;5095726;28;20102;-51
2023/12/08 07:55:48;;;;;;;20.40;10.20;;;0.70;99.90;;;;;;5095708;28;20510;-50
2023/12/08 07:58:14;;;;;;;20.58;10.10;;;0.80;99.90;;;;;;5095519;28;20054;-53
2023/12/08 08:00:39;;;;;;;24.70;11.38;;;0.80;99.90;;;;;;5095703;28;20378;-53
2023/12/08 08:03:05;;;;;;;20.70;10.00;;;0.80;99.90;;;;;;5095540;28;20044;-50
2023/12/08 08:05:31;;;;;;;23.70;10.52;;;0.80;99.90;;;;;;5095265;28;20056;-50
2023/12/08 08:07:57;;;;;;;24.55;11.20;;;0.80;99.90;;;;;;5095414;28;20044;-51
2023/12/08 08:10:22;;;;;;;21.02;10.27;;;0.80;99.90;;;;;;5128470;27;20044;-50
2023/12/08 08:12:48;;;;;;;21.67;10.50;;;0.80;99.90;;;;;;5095129;28;20127;-56
2023/12/08 08:15:14;;;;;;;22.90;10.37;;;0.80;99.90;;;;;;5095594;28;20057;-54
2023/12/08 08:17:40;;;;;;;22.00;10.43;;;0.90;99.90;;;;;;5095310;28;20044;-53
2023/12/08 08:20:07;;;;;;;22.50;10.65;;;0.80;99.90;;;;;;5095205;28;20102;-55
2023/12/08 08:22:33;;;;;;;23.13;10.98;;;0.80;99.90;;;;;;5094259;28;20127;-52
2023/12/08 08:24:59;;;;;;;21.15;10.50;;;0.90;99.90;;;;;;5095017;28;20468;-52
2023/12/08 08:27:25;;;;;;;23.00;11.20;;;0.90;99.90;;;;;;5095016;28;20047;-51
2023/12/08 08:29:51;;;;;;;20.67;9.60;;;0.80;99.90;;;;;;5094918;28;20471;-50
2023/12/08 08:32:17;;;;;;;22.15;10.65;;;0.90;99.90;;;;;;5094775;28;20483;-49
2023/12/08 08:34:43;;;;;;;21.65;10.02;;;0.90;99.90;;;;;;5095208;28;20052;-49
2023/12/08 08:37:09;;;;;;;24.27;11.30;;;0.90;99.90;;;;;;5093706;28;20164;-49
2023/12/08 08:39:35;;;;;;;20.98;10.23;;;0.80;99.90;;;;;;5094855;28;20065;-51
2023/12/08 08:42:00;;;;;;;23.77;11.15;;;0.90;99.90;;;;;;5094740;28;20103;-50
2023/12/08 08:44:27;;;;;;;22.50;11.27;;;0.90;99.90;;;;;;5095176;28;20051;-53
2023/12/08 08:46:53;;;;;;;22.85;11.70;;;0.90;99.90;;;;;;5094590;28;20044;-53
2023/12/08 08:49:19;;;;;;;25.02;11.30;;;0.90;99.90;;;;;;5094194;28;20488;-50
2023/12/08 08:51:45;;;;;;;22.90;10.53;;;0.90;99.90;;;;;;5094812;28;20497;-50
2023/12/08 08:54:10;;;;;;;22.40;10.32;;;0.90;99.90;;;;;;5094446;28;20172;-51
2023/12/08 08:56:36;;;;;;;22.13;11.13;;;0.90;99.90;;;;;;5094382;28;20044;-52
2023/12/08 08:59:03;;;;;;;20.42;10.00;;;0.90;99.90;;;;;;5094612;28;20466;-54
2023/12/08 09:01:29;;;;;;;24.88;11.18;;;0.90;99.90;;;;;;5094474;28;20052;-52
2023/12/08 09:03:55;;;;;;;22.08;10.05;;;0.90;99.90;;;;;;5093497;28;20496;-51
2023/12/08 09:06:20;;;;;;;20.58;10.90;;;0.90;99.90;;;;;;5094127;28;20094;-52
2023/12/08 09:08:47;;;;;;;24.63;11.17;;;0.90;99.90;;;;;;5094508;28;20055;-52
2023/12/08 09:11:12;;;;;;;22.25;10.60;;;0.90;99.90;;;;;;5094107;28;20051;-51
2023/12/08 09:13:38;;;;;;;24.13;10.98;;;0.90;99.90;;;;;;5094296;28;20048;-52
2023/12/08 09:16:04;;;;;;;21.65;10.38;;;1.00;99.90;;;;;;5094273;28;20044;-52
2023/12/08 09:18:30;;;;;;;22.02;11.07;;;1.00;99.90;;;;;;5094270;28;20036;-55
2023/12/08 09:20:56;;;;;;;23.73;10.90;;;1.00;99.90;;;;;;5094148;28;20045;-52
2023/12/08 09:23:21;;;;;;;22.23;10.68;;;1.00;99.90;;;;;;5093898;28;20062;-53
2023/12/08 09:25:47;;;;;;;21.67;10.82;;;0.90;99.90;;;;;;5094049;28;20052;-52
2023/12/08 09:28:15;;;;;;;24.38;10.80;;;1.00;99.90;;;;;;5093960;28;20065;-53
2023/12/08 09:30:42;;;;;;;22.85;11.35;;;1.00;99.90;;;;;;5093999;28;20469;-50
2023/12/08 09:33:09;;;;;;;21.48;10.77;;;1.00;99.90;;;;;;5093943;28;20052;-50
2023/12/08 09:35:35;;;;;;;21.75;10.80;;;1.00;99.90;;;;;;5094007;28;20043;-54
2023/12/08 09:38:00;;;;;;;25.85;10.77;;;1.00;99.90;;;;;;5093896;28;20050;-53
2023/12/08 09:40:28;;;;;;;24.10;10.65;;;1.00;99.90;;;;;;5093833;28;20437;-53
2023/12/08 09:43:02;;;;;;;23.70;10.60;;;1.00;99.90;;;;;;5093918;28;20056;-53
2023/12/08 09:45:28;;;;;;;20.55;10.00;;;1.00;99.90;;;;;;5093863;28;20046;-55
2023/12/08 09:47:55;;;;;;;20.30;10.20;;;1.00;99.90;;;;;;5094019;28;20040;-54
2023/12/08 09:50:22;;;;;;;21.70;10.30;;;1.10;99.90;;;;;;5093838;28;20071;-52
2023/12/08 09:52:48;;;;;;;;;;;1.10;99.90;;;;;;5094239;28;20098;-49
2023/12/08 09:55:15;;;;;;;21.80;10.27;;;1.10;99.90;;;;;;5093825;28;19920;-52
2023/12/08 09:57:43;;;;;;;;;;;1.10;99.90;;;;;;5094950;28;20044;-51
2023/12/08 10:00:12;;;;;;;21.48;10.10;;;1.10;99.90;;;;;;5097964;28;19932;-54
2023/12/08 10:02:39;;;;;;;22.63;10.20;;;1.10;99.90;;;;;;5097815;28;20384;-50
2023/12/08 10:05:06;;;;;;;23.50;11.25;;;1.10;99.90;;;;;;5097786;28;20070;-54
2023/12/08 10:07:34;;;;;;;23.15;10.73;;;1.10;99.90;;;;;;5096522;28;20411;-53
2023/12/08 10:10:00;;;;;;;21.55;10.50;;;1.10;99.90;;;;;;5097775;28;20051;-54
2023/12/08 10:12:27;;;;;;;22.52;10.73;;;1.10;99.90;;;;;;5097768;28;20040;-54
2023/12/08 10:14:58;;;;;;;19.83;9.95;;;1.10;99.90;;;;;;5097930;28;20052;-54
2023/12/08 10:17:24;;;;;;;24.15;10.82;;;1.10;99.90;;;;;;5096688;28;20052;-53
2023/12/08 10:19:52;;;;;;;22.58;11.27;;;1.10;99.90;;;;;;5097533;28;20059;-50
2023/12/08 10:22:19;;;;;;;20.48;10.50;;;1.10;99.90;;;;;;5097550;28;20498;-53
2023/12/08 10:24:45;;;;;;;22.15;10.43;;;1.10;99.90;;;;;;5097509;28;20087;-53
2023/12/08 10:27:11;;;;;;;22.42;9.75;;;1.10;99.90;;;;;;5097494;28;20040;-51
2023/12/08 10:29:37;;;;;;;21.20;9.98;;;1.10;99.90;;;;;;5097323;28;20047;-53
2023/12/08 10:32:06;;;;;;;23.55;10.10;;;1.20;99.90;;;;;;5097323;28;20097;-52
2023/12/08 10:34:32;;;;;;;21.25;10.57;;;1.20;99.90;;;;;;5097115;28;20501;-53
2023/12/08 10:36:58;;;;;;;20.92;11.52;;;1.20;99.90;;;;;;5097256;28;20048;-52
2023/12/08 10:39:27;;;;;;;20.35;10.25;;;1.20;99.90;;;;;;5130423;27;20501;-51
2023/12/08 10:41:53;;;;;;;20.27;10.30;;;1.20;99.90;;;;;;5097275;28;20047;-50
2023/12/08 10:44:21;;;;;;;22.02;10.93;;;1.20;99.90;;;;;;5097092;28;20047;-52
2023/12/08 10:46:50;;;;;;;22.40;11.35;;;1.20;99.90;;;;;;5079107;28;20047;-51
2023/12/08 10:49:20;;;;;;;22.20;10.35;;;1.20;99.90;;;;;;5097002;28;20475;-51
2023/12/08 10:51:49;;;;;;;24.08;11.25;;;1.20;99.90;;;;;;5095983;28;20101;-50
2023/12/08 10:54:17;;;;;;;21.20;10.13;;;1.20;99.90;;;;;;5096960;28;20048;-55
2023/12/08 10:56:44;;;;;;;22.52;10.77;;;1.20;99.90;;;;;;5096078;28;20498;-56
2023/12/08 10:59:11;;;;;;;22.88;10.38;;;1.20;99.90;;;;;;5096869;28;20131;-55
2023/12/08 11:01:38;;;;;;;23.02;10.70;;;1.20;99.90;;;;;;5096703;28;20048;-55
2023/12/08 11:04:07;;;;;;;21.27;10.25;;;1.20;99.90;;;;;;5096588;28;20052;-55
2023/12/08 11:06:39;;;;;;;25.38;12.18;;;1.30;99.90;;;;;;5096320;28;20056;-55
2023/12/08 11:09:07;;;;;;;24.02;11.20;;;1.20;99.90;;;;;;5096461;28;20500;-55
2023/12/08 11:11:35;;;;;;;21.52;10.32;;;1.30;99.90;;;;;;5096566;28;20051;-56
2023/12/08 11:14:07;;;;;;;21.92;10.73;;;1.30;99.90;;;;;;5096332;28;20044;-57
2023/12/08 11:16:53;;;;;;;21.80;11.13;;;1.30;99.90;;;;;;5096936;28;20052;-56
2023/12/08 11:19:21;;;;;;;23.35;11.23;;;1.30;99.90;;;;;;5096593;28;20055;-55
2023/12/08 11:21:47;;;;;;;21.92;10.75;;;1.30;99.90;;;;;;5096480;28;20052;-55
2023/12/08 11:24:13;;;;;;;20.40;10.07;;;1.30;99.90;;;;;;5096470;28;20090;-55
2023/12/08 11:26:51;;;;;;;22.33;11.07;;;1.30;99.90;;;;;;5096131;28;20079;-53
2023/12/08 11:29:42;;;;;;;22.00;10.98;;;1.30;99.90;;;;;;5096333;28;20083;-55
2023/12/08 11:32:26;;;;;;;21.88;10.38;;;1.30;99.90;;;;;;5096437;28;20402;-54
2023/12/08 11:34:55;;;;;;;22.17;11.57;;;1.30;99.90;;;;;;5096116;28;20051;-53
2023/12/08 11:37:22;;;;;;;23.33;11.45;;;1.40;99.90;;;;;;5095853;28;20083;-53
2023/12/08 11:39:48;;;;;;;23.60;11.73;;;1.40;99.90;;;;;;5096150;28;20040;-54
2023/12/08 11:42:18;;;;;;;24.90;11.50;;;1.30;99.90;;;;;;5096014;28;20040;-52
2023/12/08 11:44:45;;;;;;;25.33;12.38;;;1.40;99.90;;;;;;5095918;28;20044;-50
2023/12/08 11:47:14;;;;;;;;;;;1.30;99.90;;;;;;5096189;28;20044;-52
2023/12/08 11:49:42;;;;;;;23.42;11.60;;;1.30;99.90;;;;;;5095885;28;20014;-53
2023/12/08 11:52:14;;;;;;;26.48;12.00;;;1.40;99.90;;;;;;5095943;28;20451;-51
2023/12/08 11:55:11;;;;;;;26.25;12.50;;;1.40;99.90;;;;;;5096137;28;20048;-53
2023/12/08 11:57:50;;;;;;;26.40;13.30;;;1.40;99.90;;;;;;5095803;28;20048;-53
2023/12/08 12:00:21;;;;;;;26.80;12.93;;;1.40;99.90;;;;;;5096010;28;20044;-52
2023/12/08 12:02:48;;;;;;;24.48;12.45;;;1.40;99.90;;;;;;5095661;28;20083;-52
2023/12/08 12:05:14;;;;;;;27.88;12.90;;;1.40;99.90;;;;;;5095383;28;20099;-49
2023/12/08 12:07:42;;;;;;;26.70;13.38;;;1.40;99.90;;;;;;5095550;28;20149;-49
2023/12/08 12:10:12;;;;;;;30.67;14.23;;;1.40;99.90;;;;;;5095552;28;20039;-51
2023/12/08 12:12:49;;;;;;;26.73;13.63;;;1.40;99.90;;;;;;5095341;28;20491;-53
2023/12/08 12:15:18;;;;;;;26.92;12.95;;;1.50;99.90;;;;;;5095512;28;20181;-49
2023/12/08 12:17:44;;;;;;;27.85;11.77;;;1.50;99.90;;;;;;5095259;28;20097;-52
2023/12/08 12:20:11;;;;;;;32.85;13.68;;;1.50;99.90;;;;;;5127657;27;20051;-52
2023/12/08 12:22:42;;;;;;;29.38;12.18;;;1.50;99.90;;;;;;5095140;28;20048;-52
2023/12/08 12:25:08;;;;;;;24.40;11.75;;;1.50;99.90;;;;;;5094030;28;20043;-53
2023/12/08 12:27:41;;;;;;;30.38;14.63;;;1.50;99.90;;;;;;5095295;28;20123;-52
2023/12/08 12:30:08;;;;;;;25.42;12.18;;;1.50;99.90;;;;;;5095163;28;20178;-53
2023/12/08 12:32:34;;;;;;;27.52;12.35;;;1.50;99.90;;;;;;5095127;28;20051;-53
2023/12/08 12:35:01;;;;;;;28.25;13.18;;;1.50;99.90;;;;;;5095307;28;20067;-51
2023/12/08 12:37:27;;;;;;;25.70;12.88;;;1.50;99.90;;;;;;5094931;28;20125;-52